Time,TemperatureF,DewpointF,PressureIn,WindDirection,WindDirectionDegrees,WindSpeedMPH,WindSpeedGustMPH,Humidity,HourlyPrecipIn,Conditions,Clouds,dailyrainin,SoftwareType,DateUTC
2013-09-25 00:00:00,51.1,45.2,30.07,East,92,0.0,5.0,80,0.00,,---,0.00,VWS V14.00,2013-09-25 04:00:00,
2013-09-25 00:01:00,51.0,45.1,30.07,East,92,0.0,2.0,80,0.00,,---,0.00,VWS V14.00,2013-09-25 04:01:00,
2013-09-25 00:06:00,50.8,44.9,30.07,East,92,0.0,2.0,80,0.00,,---,0.00,VWS V14.00,2013-09-25 04:06:00,
2013-09-25 00:11:00,50.6,45.0,30.07,East,92,0.0,2.0,81,0.00,,---,0.00,VWS V14.00,2013-09-25 04:11:00,
2013-09-25 00:16:00,50.3,44.7,30.07,East,92,0.0,2.0,81,0.00,,---,0.00,VWS V14.00,2013-09-25 04:16:00,
2013-09-25 00:21:00,49.9,44.6,30.07,East,92,0.0,2.0,82,0.00,,---,0.00,VWS V14.00,2013-09-25 04:21:00,
2013-09-25 00:26:00,49.6,44.7,30.07,East,92,0.0,2.0,83,0.00,,---,0.00,VWS V14.00,2013-09-25 04:26:00,
2013-09-25 00:30:00,49.5,44.2,30.07,East,92,0.0,2.0,82,0.00,,---,0.00,VWS V14.00,2013-09-25 04:30:00,
2013-09-25 00:31:00,49.2,44.3,30.07,East,92,0.0,0.0,83,0.00,,---,0.00,VWS V14.00,2013-09-25 04:31:00,
2013-09-25 00:36:00,49.0,44.4,30.06,East,92,0.0,2.0,84,0.00,,---,0.00,VWS V14.00,2013-09-25 04:36:00,
2013-09-25 00:41:00,49.3,44.7,30.06,East,92,1.0,4.0,84,0.00,,---,0.00,VWS V14.00,2013-09-25 04:41:00,
2013-09-25 00:46:00,49.4,44.5,30.07,East,92,0.0,4.0,83,0.00,,---,0.00,VWS V14.00,2013-09-25 04:46:00,
2013-09-25 00:51:00,49.4,44.5,30.07,East,92,0.0,4.0,83,0.00,,---,0.00,VWS V14.00,2013-09-25 04:51:00,
2013-09-25 00:56:00,49.2,44.3,30.07,East,92,0.0,4.0,83,0.00,,---,0.00,VWS V14.00,2013-09-25 04:56:00,
2013-09-25 01:00:00,49.1,44.2,30.07,East,92,0.0,4.0,83,0.00,,---,0.00,VWS V14.00,2013-09-25 05:00:00,
2013-09-25 01:01:00,48.8,43.9,30.07,East,92,0.0,0.0,83,0.00,,---,0.00,VWS V14.00,2013-09-25 05:01:00,
2013-09-25 01:06:00,48.5,43.9,30.07,East,92,0.0,0.0,84,0.00,,---,0.00,VWS V14.00,2013-09-25 05:06:00,
2013-09-25 01:11:00,48.3,44.0,30.07,East,92,0.0,1.0,85,0.00,,---,0.00,VWS V14.00,2013-09-25 05:11:00,
2013-09-25 01:16:00,48.1,43.8,30.07,East,92,0.0,1.0,85,0.00,,---,0.00,VWS V14.00,2013-09-25 05:16:00,
2013-09-25 01:21:00,47.9,43.6,30.07,East,92,0.0,1.0,85,0.00,,---,0.00,VWS V14.00,2013-09-25 05:21:00,
2013-09-25 01:26:00,47.4,43.1,30.07,East,92,0.0,1.0,85,0.00,,---,0.00,VWS V14.00,2013-09-25 05:26:00,
2013-09-25 01:30:00,47.3,43.0,30.07,East,92,0.0,1.0,85,0.00,,---,0.00,VWS V14.00,2013-09-25 05:30:00,
2013-09-25 01:31:00,46.9,42.9,30.07,East,92,0.0,0.0,86,0.00,,---,0.00,VWS V14.00,2013-09-25 05:31:00,
2013-09-25 01:36:00,46.6,42.6,30.07,East,92,0.0,0.0,86,0.00,,---,0.00,VWS V14.00,2013-09-25 05:36:00,
2013-09-25 01:41:00,46.4,42.8,30.06,East,92,0.0,0.0,87,0.00,,---,0.00,VWS V14.00,2013-09-25 05:41:00,
2013-09-25 01:46:00,46.1,42.5,30.07,East,92,0.0,0.0,87,0.00,,---,0.00,VWS V14.00,2013-09-25 05:46:00,
2013-09-25 01:51:00,45.9,42.5,30.07,East,92,0.0,0.0,88,0.00,,---,0.00,VWS V14.00,2013-09-25 05:51:00,
2013-09-25 01:56:00,45.6,42.5,30.07,East,92,0.0,0.0,89,0.00,,---,0.00,VWS V14.00,2013-09-25 05:56:00,
2013-09-25 02:00:00,45.6,42.5,30.07,East,92,0.0,0.0,89,0.00,,---,0.00,VWS V14.00,2013-09-25 06:00:00,
2013-09-25 02:01:00,45.4,42.3,30.07,East,92,0.0,0.0,89,0.00,,---,0.00,VWS V14.00,2013-09-25 06:01:00,
2013-09-25 02:06:00,45.2,42.2,30.07,East,92,0.0,0.0,89,0.00,,---,0.00,VWS V14.00,2013-09-25 06:06:00,
2013-09-25 02:11:00,45.0,42.2,30.07,East,92,0.0,0.0,90,0.00,,---,0.00,VWS V14.00,2013-09-25 06:11:00,
2013-09-25 02:16:00,44.8,42.0,30.07,East,92,0.0,0.0,90,0.00,,---,0.00,VWS V14.00,2013-09-25 06:16:00,
2013-09-25 02:21:00,44.7,42.0,30.06,East,92,0.0,0.0,90,0.00,,---,0.00,VWS V14.00,2013-09-25 06:21:00,
2013-09-25 02:26:00,44.6,42.1,30.07,East,92,0.0,0.0,91,0.00,,---,0.00,VWS V14.00,2013-09-25 06:26:00,
2013-09-25 02:30:00,44.6,41.8,30.07,East,92,0.0,0.0,90,0.00,,---,0.00,VWS V14.00,2013-09-25 06:30:00,
2013-09-25 02:31:00,44.3,41.8,30.07,East,92,0.0,0.0,91,0.00,,---,0.00,VWS V14.00,2013-09-25 06:31:00,
2013-09-25 02:36:00,44.3,42.1,30.06,East,92,0.0,1.0,92,0.00,,---,0.00,VWS V14.00,2013-09-25 06:36:00,
2013-09-25 02:41:00,44.4,42.2,30.06,East,92,0.0,1.0,92,0.00,,---,0.00,VWS V14.00,2013-09-25 06:41:00,
2013-09-25 02:46:00,44.3,42.1,30.06,East,92,0.0,1.0,92,0.00,,---,0.00,VWS V14.00,2013-09-25 06:46:00,
2013-09-25 02:51:00,44.2,42.0,30.06,East,92,0.0,1.0,92,0.00,,---,0.00,VWS V14.00,2013-09-25 06:51:00,
2013-09-25 02:56:00,44.1,41.9,30.06,East,92,0.0,1.0,92,0.00,,---,0.00,VWS V14.00,2013-09-25 06:56:00,
2013-09-25 03:00:00,44.1,41.9,30.06,East,92,0.0,1.0,92,0.00,,---,0.00,VWS V14.00,2013-09-25 07:00:00,
2013-09-25 03:01:00,44.0,41.8,30.06,East,92,0.0,0.0,92,0.00,,---,0.00,VWS V14.00,2013-09-25 07:01:00,
2013-09-25 03:06:00,43.9,41.7,30.06,East,92,0.0,0.0,92,0.00,,---,0.00,VWS V14.00,2013-09-25 07:06:00,
2013-09-25 03:11:00,43.6,41.4,30.06,East,92,0.0,0.0,92,0.00,,---,0.00,VWS V14.00,2013-09-25 07:11:00,
2013-09-25 03:16:00,43.6,41.7,30.06,East,92,0.0,0.0,93,0.00,,---,0.00,VWS V14.00,2013-09-25 07:16:00,
2013-09-25 03:21:00,43.4,41.2,30.06,East,92,0.0,0.0,92,0.00,,---,0.00,VWS V14.00,2013-09-25 07:21:00,
2013-09-25 03:26:00,43.4,41.5,30.05,East,92,0.0,1.0,93,0.00,,---,0.00,VWS V14.00,2013-09-25 07:26:00,
2013-09-25 03:30:00,43.5,41.6,30.05,East,92,0.0,1.0,93,0.00,,---,0.00,VWS V14.00,2013-09-25 07:30:00,
2013-09-25 03:31:00,43.5,41.6,30.06,East,92,0.0,0.0,93,0.00,,---,0.00,VWS V14.00,2013-09-25 07:31:00,
2013-09-25 03:36:00,43.2,41.0,30.06,East,92,0.0,0.0,92,0.00,,---,0.00,VWS V14.00,2013-09-25 07:36:00,
2013-09-25 03:41:00,43.1,41.2,30.06,East,92,0.0,0.0,93,0.00,,---,0.00,VWS V14.00,2013-09-25 07:41:00,
2013-09-25 03:46:00,43.2,41.3,30.06,East,92,0.0,0.0,93,0.00,,---,0.00,VWS V14.00,2013-09-25 07:46:00,
2013-09-25 03:51:00,43.1,41.2,30.06,East,92,0.0,0.0,93,0.00,,---,0.00,VWS V14.00,2013-09-25 07:51:00,
2013-09-25 03:56:00,43.1,41.2,30.06,East,92,0.0,0.0,93,0.00,,---,0.00,VWS V14.00,2013-09-25 07:56:00,
2013-09-25 04:00:00,43.1,41.2,30.06,East,92,0.0,0.0,93,0.00,,---,0.00,VWS V14.00,2013-09-25 08:00:00,
2013-09-25 04:01:00,43.0,41.1,30.06,East,92,0.0,1.0,93,0.00,,---,0.00,VWS V14.00,2013-09-25 08:01:00,
2013-09-25 04:06:00,43.0,41.1,30.06,East,92,0.0,1.0,93,0.00,,---,0.00,VWS V14.00,2013-09-25 08:06:00,
2013-09-25 04:11:00,42.9,41.0,30.06,East,92,0.0,1.0,93,0.00,,---,0.00,VWS V14.00,2013-09-25 08:11:00,
2013-09-25 04:16:00,42.9,41.0,30.05,East,92,0.0,1.0,93,0.00,,---,0.00,VWS V14.00,2013-09-25 08:16:00,
2013-09-25 04:21:00,42.7,40.8,30.05,East,92,0.0,1.0,93,0.00,,---,0.00,VWS V14.00,2013-09-25 08:21:00,
2013-09-25 04:26:00,42.6,40.7,30.05,East,92,0.0,1.0,93,0.00,,---,0.00,VWS V14.00,2013-09-25 08:26:00,
2013-09-25 04:30:00,42.6,40.7,30.05,East,92,0.0,1.0,93,0.00,,---,0.00,VWS V14.00,2013-09-25 08:30:00,
2013-09-25 04:31:00,42.5,40.6,30.05,East,92,0.0,0.0,93,0.00,,---,0.00,VWS V14.00,2013-09-25 08:31:00,
2013-09-25 04:36:00,42.5,40.9,30.05,East,92,0.0,1.0,94,0.00,,---,0.00,VWS V14.00,2013-09-25 08:36:00,
2013-09-25 04:41:00,42.6,41.0,30.06,East,92,0.0,1.0,94,0.00,,---,0.00,VWS V14.00,2013-09-25 08:41:00,
2013-09-25 04:46:00,42.6,41.0,30.06,East,92,0.0,1.0,94,0.00,,---,0.00,VWS V14.00,2013-09-25 08:46:00,
2013-09-25 04:51:00,42.7,41.1,30.06,East,92,0.0,1.0,94,0.00,,---,0.00,VWS V14.00,2013-09-25 08:51:00,
2013-09-25 04:56:00,42.7,41.1,30.06,East,92,0.0,1.0,94,0.00,,---,0.00,VWS V14.00,2013-09-25 08:56:00,
2013-09-25 05:00:00,42.7,41.1,30.06,East,92,0.0,1.0,94,0.00,,---,0.00,VWS V14.00,2013-09-25 09:00:00,
2013-09-25 05:01:00,42.8,41.2,30.06,East,92,0.0,0.0,94,0.00,,---,0.00,VWS V14.00,2013-09-25 09:01:00,
2013-09-25 05:06:00,42.8,41.2,30.06,East,92,0.0,0.0,94,0.00,,---,0.00,VWS V14.00,2013-09-25 09:06:00,
2013-09-25 05:11:00,42.8,41.2,30.06,East,92,0.0,0.0,94,0.00,,---,0.00,VWS V14.00,2013-09-25 09:11:00,
2013-09-25 05:16:00,42.6,41.0,30.06,East,92,0.0,0.0,94,0.00,,---,0.00,VWS V14.00,2013-09-25 09:16:00,
2013-09-25 05:21:00,42.4,40.8,30.06,East,92,0.0,0.0,94,0.00,,---,0.00,VWS V14.00,2013-09-25 09:21:00,
2013-09-25 05:26:00,42.3,40.7,30.06,East,92,0.0,0.0,94,0.00,,---,0.00,VWS V14.00,2013-09-25 09:26:00,
2013-09-25 05:30:00,42.3,40.7,30.06,East,92,0.0,0.0,94,0.00,,---,0.00,VWS V14.00,2013-09-25 09:30:00,
2013-09-25 05:31:00,42.2,40.6,30.06,East,92,0.0,0.0,94,0.00,,---,0.00,VWS V14.00,2013-09-25 09:31:00,
2013-09-25 05:36:00,42.3,40.7,30.06,East,92,0.0,0.0,94,0.00,,---,0.00,VWS V14.00,2013-09-25 09:36:00,
2013-09-25 05:41:00,42.3,40.7,30.06,East,92,0.0,0.0,94,0.00,,---,0.00,VWS V14.00,2013-09-25 09:41:00,
2013-09-25 05:46:00,42.2,40.6,30.06,East,92,0.0,0.0,94,0.00,,---,0.00,VWS V14.00,2013-09-25 09:46:00,
2013-09-25 05:51:00,42.2,40.9,30.06,East,92,0.0,0.0,95,0.00,,---,0.00,VWS V14.00,2013-09-25 09:51:00,
2013-09-25 05:56:00,42.2,40.6,30.06,East,92,0.0,0.0,94,0.00,,---,0.00,VWS V14.00,2013-09-25 09:56:00,
2013-09-25 06:00:00,42.2,40.6,30.05,East,92,0.0,0.0,94,0.00,,---,0.00,VWS V14.00,2013-09-25 10:00:00,
2013-09-25 06:01:00,41.9,40.3,30.05,East,92,0.0,0.0,94,0.00,,---,0.00,VWS V14.00,2013-09-25 10:01:00,
2013-09-25 06:06:00,41.9,40.6,30.05,East,92,0.0,0.0,95,0.00,,---,0.00,VWS V14.00,2013-09-25 10:06:00,
2013-09-25 06:11:00,42.0,40.7,30.06,East,92,0.0,0.0,95,0.00,,---,0.00,VWS V14.00,2013-09-25 10:11:00,
2013-09-25 06:16:00,42.2,40.9,30.05,East,92,0.0,0.0,95,0.00,,---,0.00,VWS V14.00,2013-09-25 10:16:00,
2013-09-25 06:21:00,42.2,40.9,30.06,East,92,0.0,0.0,95,0.00,,---,0.00,VWS V14.00,2013-09-25 10:21:00,
2013-09-25 06:26:00,42.3,41.0,30.06,East,92,0.0,0.0,95,0.00,,---,0.00,VWS V14.00,2013-09-25 10:26:00,
2013-09-25 06:30:00,42.3,41.0,30.06,East,92,0.0,0.0,95,0.00,,---,0.00,VWS V14.00,2013-09-25 10:30:00,
2013-09-25 06:31:00,42.3,41.0,30.06,East,92,0.0,0.0,95,0.00,,---,0.00,VWS V14.00,2013-09-25 10:31:00,
2013-09-25 06:36:00,42.2,40.9,30.06,East,92,0.0,1.0,95,0.00,,---,0.00,VWS V14.00,2013-09-25 10:36:00,
2013-09-25 06:41:00,42.3,41.0,30.06,East,92,0.0,1.0,95,0.00,,---,0.00,VWS V14.00,2013-09-25 10:41:00,
2013-09-25 06:46:00,42.3,41.0,30.06,East,92,0.0,1.0,95,0.00,,---,0.00,VWS V14.00,2013-09-25 10:46:00,
2013-09-25 06:51:00,42.2,40.9,30.06,East,92,0.0,1.0,95,0.00,,---,0.00,VWS V14.00,2013-09-25 10:51:00,
2013-09-25 06:56:00,42.2,40.9,30.06,East,92,0.0,1.0,95,0.00,,---,0.00,VWS V14.00,2013-09-25 10:56:00,
2013-09-25 07:00:00,42.2,40.9,30.06,East,92,0.0,1.0,95,0.00,,---,0.00,VWS V14.00,2013-09-25 11:00:00,
2013-09-25 07:01:00,42.2,40.9,30.06,East,92,0.0,1.0,95,0.00,,---,0.00,VWS V14.00,2013-09-25 11:01:00,
2013-09-25 07:06:00,42.4,41.1,30.06,East,92,0.0,1.0,95,0.00,,---,0.00,VWS V14.00,2013-09-25 11:06:00,
2013-09-25 07:11:00,42.4,41.1,30.06,East,92,0.0,1.0,95,0.00,,---,0.00,VWS V14.00,2013-09-25 11:11:00,
2013-09-25 07:16:00,42.4,41.1,30.06,East,92,0.0,1.0,95,0.00,,---,0.00,VWS V14.00,2013-09-25 11:16:00,
2013-09-25 07:21:00,42.4,41.1,30.06,East,92,0.0,1.0,95,0.00,,---,0.00,VWS V14.00,2013-09-25 11:21:00,
2013-09-25 07:26:00,42.4,41.1,30.06,East,92,0.0,1.0,95,0.00,,---,0.00,VWS V14.00,2013-09-25 11:26:00,
2013-09-25 07:30:00,42.4,41.1,30.06,East,92,0.0,1.0,95,0.00,,---,0.00,VWS V14.00,2013-09-25 11:30:00,
2013-09-25 07:31:00,42.3,41.0,30.07,East,92,0.0,0.0,95,0.00,,---,0.00,VWS V14.00,2013-09-25 11:31:00,
2013-09-25 07:36:00,42.2,40.9,30.07,East,92,0.0,1.0,95,0.00,,---,0.00,VWS V14.00,2013-09-25 11:36:00,
2013-09-25 07:41:00,42.1,40.8,30.07,East,92,0.0,1.0,95,0.00,,---,0.00,VWS V14.00,2013-09-25 11:41:00,
2013-09-25 07:46:00,42.1,40.8,30.07,East,92,0.0,1.0,95,0.00,,---,0.00,VWS V14.00,2013-09-25 11:46:00,
2013-09-25 07:51:00,42.1,40.8,30.07,East,92,0.0,1.0,95,0.00,,---,0.00,VWS V14.00,2013-09-25 11:51:00,
2013-09-25 07:56:00,42.2,40.9,30.07,East,92,0.0,1.0,95,0.00,,---,0.00,VWS V14.00,2013-09-25 11:56:00,
2013-09-25 08:00:00,42.2,40.9,30.07,East,92,0.0,1.0,95,0.00,,---,0.00,VWS V14.00,2013-09-25 12:00:00,
2013-09-25 08:01:00,42.4,41.1,30.07,East,92,0.0,2.0,95,0.00,,---,0.00,VWS V14.00,2013-09-25 12:01:00,
2013-09-25 08:06:00,42.5,41.2,30.07,East,93,1.0,2.0,95,0.00,,---,0.00,VWS V14.00,2013-09-25 12:06:00,
2013-09-25 08:11:00,42.7,41.4,30.07,East,92,0.0,2.0,95,0.00,,---,0.00,VWS V14.00,2013-09-25 12:11:00,
2013-09-25 08:17:00,43.1,42.0,30.07,East,92,0.0,4.0,96,0.00,,---,0.00,VWS V14.00,2013-09-25 12:17:00,
2013-09-25 08:22:00,43.4,42.3,30.07,East,92,0.0,4.0,96,0.00,,---,0.00,VWS V14.00,2013-09-25 12:22:00,
2013-09-25 08:27:00,43.7,42.6,30.07,North,355,0.0,1.0,96,0.00,,---,0.00,VWS V14.00,2013-09-25 12:27:00,
2013-09-25 08:30:00,43.7,42.6,30.07,North,355,1.0,4.0,96,0.00,,---,0.00,VWS V14.00,2013-09-25 12:30:00,
2013-09-25 08:32:00,44.0,42.9,30.07,North,355,0.0,2.0,96,0.00,,---,0.00,VWS V14.00,2013-09-25 12:32:00,
2013-09-25 08:37:00,44.4,43.3,30.07,North,355,0.0,2.0,96,0.00,,---,0.00,VWS V14.00,2013-09-25 12:37:00,
2013-09-25 08:42:00,44.8,43.7,30.07,North,355,1.0,2.0,96,0.00,,---,0.00,VWS V14.00,2013-09-25 12:42:00,
2013-09-25 08:47:00,45.2,44.1,30.07,North,355,0.0,2.0,96,0.00,,---,0.00,VWS V14.00,2013-09-25 12:47:00,
2013-09-25 08:52:00,45.7,44.6,30.07,North,355,1.0,2.0,96,0.00,,---,0.00,VWS V14.00,2013-09-25 12:52:00,
2013-09-25 08:57:00,46.2,45.1,30.07,North,355,1.0,1.0,96,0.00,,---,0.00,VWS V14.00,2013-09-25 12:57:00,
2013-09-25 09:00:00,46.2,45.1,30.07,North,355,0.0,2.0,96,0.00,,---,0.00,VWS V14.00,2013-09-25 13:00:00,
2013-09-25 09:02:00,46.7,45.6,30.07,North,355,0.0,2.0,96,0.00,,---,0.00,VWS V14.00,2013-09-25 13:02:00,
2013-09-25 09:07:00,47.4,46.3,30.07,North,355,0.0,2.0,96,0.00,,---,0.00,VWS V14.00,2013-09-25 13:07:00,
2013-09-25 09:12:00,48.0,46.9,30.07,North,355,1.0,2.0,96,0.00,,---,0.00,VWS V14.00,2013-09-25 13:12:00,
2013-09-25 09:17:00,48.7,47.6,30.07,North,355,0.0,2.0,96,0.00,,---,0.00,VWS V14.00,2013-09-25 13:17:00,
2013-09-25 09:22:00,49.7,48.9,30.07,North,355,0.0,2.0,97,0.00,,---,0.00,VWS V14.00,2013-09-25 13:22:00,
2013-09-25 09:27:00,50.7,49.9,30.07,North,355,1.0,1.0,97,0.00,,---,0.00,VWS V14.00,2013-09-25 13:27:00,
2013-09-25 09:30:00,50.6,49.5,30.07,North,355,1.0,2.0,96,0.00,,---,0.00,VWS V14.00,2013-09-25 13:30:00,
2013-09-25 09:32:00,51.7,50.9,30.07,North,355,1.0,3.0,97,0.00,,---,0.00,VWS V14.00,2013-09-25 13:32:00,
2013-09-25 09:37:00,52.4,51.6,30.07,North,355,0.0,3.0,97,0.00,,---,0.00,VWS V14.00,2013-09-25 13:37:00,
2013-09-25 09:42:00,53.2,52.1,30.07,North,355,0.0,3.0,96,0.00,,---,0.00,VWS V14.00,2013-09-25 13:42:00,
2013-09-25 09:47:00,53.6,52.5,30.07,North,355,0.0,3.0,96,0.00,,---,0.00,VWS V14.00,2013-09-25 13:47:00,
2013-09-25 09:52:00,54.1,52.7,30.07,North,355,1.0,3.0,95,0.00,,---,0.00,VWS V14.00,2013-09-25 13:52:00,
2013-09-25 09:57:00,54.8,53.1,30.07,North,355,0.0,0.0,94,0.00,,---,0.00,VWS V14.00,2013-09-25 13:57:00,
2013-09-25 10:00:00,54.8,53.1,30.07,North,355,0.0,3.0,94,0.00,,---,0.00,VWS V14.00,2013-09-25 14:00:00,
2013-09-25 10:02:00,55.5,53.5,30.07,North,355,2.0,3.0,93,0.00,,---,0.00,VWS V14.00,2013-09-25 14:02:00,
2013-09-25 10:07:00,56.4,54.4,30.07,North,355,0.0,3.0,93,0.00,,---,0.00,VWS V14.00,2013-09-25 14:07:00,
2013-09-25 10:12:00,57.4,54.8,30.07,North,355,0.0,3.0,91,0.00,,---,0.00,VWS V14.00,2013-09-25 14:12:00,
2013-09-25 10:17:00,58.4,54.9,30.07,North,9,3.0,3.0,88,0.00,,---,0.00,VWS V14.00,2013-09-25 14:17:00,
2013-09-25 10:22:00,59.1,54.9,30.07,North,5,0.0,3.0,86,0.00,,---,0.00,VWS V14.00,2013-09-25 14:22:00,
2013-09-25 10:27:00,59.7,54.9,30.07,North,5,2.0,2.0,84,0.00,,---,0.00,VWS V14.00,2013-09-25 14:27:00,
2013-09-25 10:30:00,59.6,54.8,30.07,North,5,1.0,4.0,84,0.00,,---,0.00,VWS V14.00,2013-09-25 14:30:00,
2013-09-25 10:32:00,60.2,55.0,30.07,ENE,78,0.0,4.0,83,0.00,,---,0.00,VWS V14.00,2013-09-25 14:32:00,
2013-09-25 10:37:00,60.8,55.3,30.06,NE,53,2.0,4.0,82,0.00,,---,0.00,VWS V14.00,2013-09-25 14:37:00,
2013-09-25 10:42:00,60.9,55.0,30.06,East,80,1.0,4.0,81,0.00,,---,0.00,VWS V14.00,2013-09-25 14:42:00,
2013-09-25 10:47:00,61.2,55.0,30.06,NE,42,2.0,4.0,80,0.00,,---,0.00,VWS V14.00,2013-09-25 14:47:00,
2013-09-25 10:52:00,61.5,55.3,30.06,ENE,60,1.0,4.0,80,0.00,,---,0.00,VWS V14.00,2013-09-25 14:52:00,
2013-09-25 10:57:00,62.1,55.2,30.06,ESE,108,0.0,1.0,78,0.00,,---,0.00,VWS V14.00,2013-09-25 14:57:00,
2013-09-25 11:00:00,62.0,55.1,30.06,ESE,108,1.0,6.0,78,0.00,,---,0.00,VWS V14.00,2013-09-25 15:00:00,
2013-09-25 11:02:00,62.6,54.2,30.07,ESE,113,5.0,7.0,74,0.00,,---,0.00,VWS V14.00,2013-09-25 15:02:00,
2013-09-25 11:07:00,63.0,53.8,30.06,East,101,5.0,7.0,72,0.00,,---,0.00,VWS V14.00,2013-09-25 15:07:00,
2013-09-25 11:12:00,63.6,54.0,30.06,NW,307,3.0,7.0,71,0.00,,---,0.00,VWS V14.00,2013-09-25 15:12:00,
2013-09-25 11:17:00,63.6,52.9,30.07,NNE,23,3.0,7.0,68,0.00,,---,0.00,VWS V14.00,2013-09-25 15:17:00,
2013-09-25 11:22:00,64.0,53.2,30.06,ENE,63,3.0,7.0,68,0.00,,---,0.00,VWS V14.00,2013-09-25 15:22:00,
2013-09-25 11:27:00,64.3,52.7,30.06,NE,36,3.0,6.0,66,0.00,,---,0.00,VWS V14.00,2013-09-25 15:27:00,
2013-09-25 11:30:00,64.3,52.7,30.06,NNE,17,6.0,7.0,66,0.00,,---,0.00,VWS V14.00,2013-09-25 15:30:00,
2013-09-25 11:32:00,63.9,52.3,30.07,ENE,78,2.0,8.0,66,0.00,,---,0.00,VWS V14.00,2013-09-25 15:32:00,
2013-09-25 11:37:00,63.7,52.1,30.07,East,94,1.0,8.0,66,0.00,,---,0.00,VWS V14.00,2013-09-25 15:37:00,
2013-09-25 11:42:00,63.8,52.2,30.07,ENE,75,3.0,8.0,66,0.00,,---,0.00,VWS V14.00,2013-09-25 15:42:00,
2013-09-25 11:47:00,64.3,51.9,30.07,NNE,28,0.0,8.0,64,0.00,,---,0.00,VWS V14.00,2013-09-25 15:47:00,
2013-09-25 11:52:00,64.7,51.8,30.07,North,5,0.0,8.0,63,0.00,,---,0.00,VWS V14.00,2013-09-25 15:52:00,
2013-09-25 11:57:00,64.7,51.8,30.07,North,360,2.0,5.0,63,0.00,,---,0.00,VWS V14.00,2013-09-25 15:57:00,
2013-09-25 12:00:00,64.7,51.8,30.07,North,360,4.0,8.0,63,0.00,,---,0.00,VWS V14.00,2013-09-25 16:00:00,
2013-09-25 12:02:00,64.6,52.6,30.07,NNE,26,3.0,6.0,65,0.00,,---,0.00,VWS V14.00,2013-09-25 16:02:00,
2013-09-25 12:07:00,64.8,52.3,30.07,ENE,70,1.0,6.0,64,0.00,,---,0.00,VWS V14.00,2013-09-25 16:07:00,
2013-09-25 12:12:00,65.0,52.1,30.07,NNE,30,2.0,6.0,63,0.00,,---,0.00,VWS V14.00,2013-09-25 16:12:00,
2013-09-25 12:17:00,65.4,52.5,30.07,NE,46,5.0,6.0,63,0.00,,---,0.00,VWS V14.00,2013-09-25 16:17:00,
2013-09-25 12:22:00,65.1,51.8,30.07,North,5,6.0,7.0,62,0.00,,---,0.00,VWS V14.00,2013-09-25 16:22:00,
2013-09-25 12:27:00,64.7,51.8,30.07,North,355,0.0,2.0,63,0.00,,---,0.00,VWS V14.00,2013-09-25 16:27:00,
2013-09-25 12:30:00,64.7,51.8,30.07,North,355,1.0,7.0,63,0.00,,---,0.00,VWS V14.00,2013-09-25 16:30:00,
2013-09-25 12:32:00,65.0,52.1,30.07,ENE,59,0.0,4.0,63,0.00,,---,0.00,VWS V14.00,2013-09-25 16:32:00,
2013-09-25 12:37:00,65.5,52.6,30.07,ENE,60,3.0,4.0,63,0.00,,---,0.00,VWS V14.00,2013-09-25 16:37:00,
2013-09-25 12:42:00,65.9,52.1,30.07,NE,38,0.0,5.0,61,0.00,,---,0.00,VWS V14.00,2013-09-25 16:42:00,
2013-09-25 12:47:00,66.4,53.0,30.07,NNW,336,5.0,6.0,62,0.00,,---,0.00,VWS V14.00,2013-09-25 16:47:00,
2013-09-25 12:52:00,66.3,52.9,30.06,NNW,346,2.0,8.0,62,0.00,,---,0.00,VWS V14.00,2013-09-25 16:52:00,
2013-09-25 12:57:00,66.5,53.1,30.06,NNE,28,3.0,4.0,62,0.00,,---,0.00,VWS V14.00,2013-09-25 16:57:00,
2013-09-25 13:00:00,66.4,53.0,30.06,NNE,28,2.0,8.0,62,0.00,,---,0.00,VWS V14.00,2013-09-25 17:00:00,
2013-09-25 13:02:00,66.8,52.9,30.06,NNE,17,3.0,6.0,61,0.00,,---,0.00,VWS V14.00,2013-09-25 17:02:00,
2013-09-25 13:07:00,66.8,53.8,30.06,NNE,26,1.0,6.0,63,0.00,,---,0.00,VWS V14.00,2013-09-25 17:07:00,
2013-09-25 13:12:00,66.5,54.0,30.06,NNW,327,1.0,8.0,64,0.00,,---,0.00,VWS V14.00,2013-09-25 17:12:00,
2013-09-25 13:17:00,65.9,54.2,30.06,NW,323,2.0,8.0,66,0.00,,---,0.00,VWS V14.00,2013-09-25 17:17:00,
2013-09-25 13:22:00,66.0,54.3,30.06,North,355,1.0,8.0,66,0.00,,---,0.00,VWS V14.00,2013-09-25 17:22:00,
2013-09-25 13:27:00,66.4,54.7,30.05,NNW,346,2.0,4.0,66,0.00,,---,0.00,VWS V14.00,2013-09-25 17:27:00,
2013-09-25 13:30:00,66.3,54.2,30.05,NNW,341,4.0,8.0,65,0.00,,---,0.00,VWS V14.00,2013-09-25 17:30:00,
2013-09-25 13:32:00,66.3,54.6,30.05,NW,324,3.0,8.0,66,0.00,,---,0.00,VWS V14.00,2013-09-25 17:32:00,
2013-09-25 13:37:00,66.7,54.6,30.05,ENE,65,1.0,8.0,65,0.00,,---,0.00,VWS V14.00,2013-09-25 17:37:00,
2013-09-25 13:42:00,67.1,54.1,30.05,NNE,21,1.0,12.0,63,0.00,,---,0.00,VWS V14.00,2013-09-25 17:42:00,
2013-09-25 13:47:00,66.7,54.2,30.05,NE,46,4.0,12.0,64,0.00,,---,0.00,VWS V14.00,2013-09-25 17:47:00,
2013-09-25 13:52:00,67.0,53.6,30.04,North,360,2.0,12.0,62,0.00,,---,0.00,VWS V14.00,2013-09-25 17:52:00,
2013-09-25 13:57:00,67.4,53.0,30.04,East,101,0.0,6.0,60,0.00,,---,0.00,VWS V14.00,2013-09-25 17:57:00,
2013-09-25 14:00:00,67.4,53.0,30.04,East,94,5.0,12.0,60,0.00,,---,0.00,VWS V14.00,2013-09-25 18:00:00,
2013-09-25 14:02:00,67.4,53.5,30.04,North,9,8.0,9.0,61,0.00,,---,0.00,VWS V14.00,2013-09-25 18:02:00,
2013-09-25 14:07:00,67.7,53.3,30.04,North,351,1.0,9.0,60,0.00,,---,0.00,VWS V14.00,2013-09-25 18:07:00,
2013-09-25 14:12:00,67.7,53.8,30.04,North,360,6.0,10.0,61,0.00,,---,0.00,VWS V14.00,2013-09-25 18:12:00,
2013-09-25 14:17:00,67.4,53.5,30.04,NNE,15,1.0,10.0,61,0.00,,---,0.00,VWS V14.00,2013-09-25 18:17:00,
2013-09-25 14:22:00,67.7,53.8,30.04,East,88,3.0,10.0,61,0.00,,---,0.00,VWS V14.00,2013-09-25 18:22:00,
2013-09-25 14:27:00,68.1,54.2,30.04,NNE,13,4.0,5.0,61,0.00,,---,0.00,VWS V14.00,2013-09-25 18:27:00,
2013-09-25 14:30:00,68.0,54.1,30.04,North,355,2.0,10.0,61,0.00,,---,0.00,VWS V14.00,2013-09-25 18:30:00,
2013-09-25 14:33:00,67.9,54.0,30.04,North,360,4.0,9.0,61,0.00,,---,0.00,VWS V14.00,2013-09-25 18:33:00,
2013-09-25 14:38:00,67.5,54.0,30.03,North,355,4.0,10.0,62,0.00,,---,0.00,VWS V14.00,2013-09-25 18:38:00,
2013-09-25 14:43:00,67.3,53.8,30.03,West,281,5.0,10.0,62,0.00,,---,0.00,VWS V14.00,2013-09-25 18:43:00,
2013-09-25 14:48:00,67.0,53.6,30.03,NNE,26,0.0,10.0,62,0.00,,---,0.00,VWS V14.00,2013-09-25 18:48:00,
2013-09-25 14:53:00,67.1,54.1,30.03,NNE,13,3.0,10.0,63,0.00,,---,0.00,VWS V14.00,2013-09-25 18:53:00,
2013-09-25 14:58:00,67.0,54.0,30.03,NNE,26,10.0,10.0,63,0.00,,---,0.00,VWS V14.00,2013-09-25 18:58:00,
2013-09-25 15:00:00,67.0,54.0,30.03,NNE,13,4.0,10.0,63,0.00,,---,0.00,VWS V14.00,2013-09-25 19:00:00,
2013-09-25 15:03:00,66.4,53.4,30.03,North,5,6.0,10.0,63,0.00,,---,0.00,VWS V14.00,2013-09-25 19:03:00,
2013-09-25 15:08:00,66.3,53.3,30.03,NE,38,7.0,14.0,63,0.00,,---,0.00,VWS V14.00,2013-09-25 19:08:00,
2013-09-25 15:13:00,65.9,53.8,30.03,North,9,6.0,14.0,65,0.00,,---,0.00,VWS V14.00,2013-09-25 19:13:00,
2013-09-25 15:18:00,66.1,53.6,30.03,NNW,347,6.0,14.0,64,0.00,,---,0.00,VWS V14.00,2013-09-25 19:18:00,
2013-09-25 15:23:00,66.0,53.5,30.03,NNW,348,5.0,14.0,64,0.00,,---,0.00,VWS V14.00,2013-09-25 19:23:00,
2013-09-25 15:28:00,66.0,53.5,30.03,North,355,2.0,8.0,64,0.00,,---,0.00,VWS V14.00,2013-09-25 19:28:00,
2013-09-25 15:30:00,66.1,53.6,30.03,NE,43,5.0,14.0,64,0.00,,---,0.00,VWS V14.00,2013-09-25 19:30:00,
2013-09-25 15:33:00,66.0,53.5,30.03,NNE,19,1.0,12.0,64,0.00,,---,0.00,VWS V14.00,2013-09-25 19:33:00,
2013-09-25 15:38:00,66.1,54.0,30.03,North,9,4.0,12.0,65,0.00,,---,0.00,VWS V14.00,2013-09-25 19:38:00,
2013-09-25 15:43:00,66.3,54.2,30.03,NNE,21,7.0,12.0,65,0.00,,---,0.00,VWS V14.00,2013-09-25 19:43:00,
2013-09-25 15:48:00,66.4,54.3,30.03,NNE,30,3.0,12.0,65,0.00,,---,0.00,VWS V14.00,2013-09-25 19:48:00,
2013-09-25 15:53:00,66.8,54.7,30.03,North,5,4.0,12.0,65,0.00,,---,0.00,VWS V14.00,2013-09-25 19:53:00,
2013-09-25 15:58:00,66.2,54.1,30.03,NNE,18,6.0,9.0,65,0.00,,---,0.00,VWS V14.00,2013-09-25 19:58:00,
2013-09-25 16:00:00,66.3,54.2,30.03,North,11,6.0,12.0,65,0.00,,---,0.00,VWS V14.00,2013-09-25 20:00:00,
2013-09-25 16:03:00,66.1,54.0,30.03,NNE,32,4.0,10.0,65,0.00,,---,0.00,VWS V14.00,2013-09-25 20:03:00,
2013-09-25 16:08:00,66.1,54.4,30.03,North,10,4.0,10.0,66,0.00,,---,0.00,VWS V14.00,2013-09-25 20:08:00,
2013-09-25 16:13:00,66.5,54.8,30.03,NNW,334,3.0,10.0,66,0.00,,---,0.00,VWS V14.00,2013-09-25 20:13:00,
2013-09-25 16:18:00,66.2,54.1,30.03,NNW,344,4.0,11.0,65,0.00,,---,0.00,VWS V14.00,2013-09-25 20:18:00,
2013-09-25 16:23:00,66.1,54.0,30.03,ENE,67,6.0,11.0,65,0.00,,---,0.00,VWS V14.00,2013-09-25 20:23:00,
2013-09-25 16:28:00,66.3,54.2,30.03,ENE,74,3.0,6.0,65,0.00,,---,0.00,VWS V14.00,2013-09-25 20:28:00,
2013-09-25 16:30:00,66.2,54.1,30.03,North,5,1.0,11.0,65,0.00,,---,0.00,VWS V14.00,2013-09-25 20:30:00,
2013-09-25 16:33:00,66.6,54.1,30.03,North,360,8.0,8.0,64,0.00,,---,0.00,VWS V14.00,2013-09-25 20:33:00,
2013-09-25 16:38:00,66.2,53.7,30.03,NNE,24,8.0,10.0,64,0.00,,---,0.00,VWS V14.00,2013-09-25 20:38:00,
2013-09-25 16:43:00,65.8,53.7,30.04,NNE,14,7.0,10.0,65,0.00,,---,0.00,VWS V14.00,2013-09-25 20:43:00,
2013-09-25 16:48:00,65.8,53.7,30.03,North,5,10.0,10.0,65,0.00,,---,0.00,VWS V14.00,2013-09-25 20:48:00,
2013-09-25 16:53:00,66.2,54.1,30.04,ESE,121,1.0,10.0,65,0.00,,---,0.00,VWS V14.00,2013-09-25 20:53:00,
2013-09-25 16:58:00,66.4,54.3,30.04,NNE,13,7.0,8.0,65,0.00,,---,0.00,VWS V14.00,2013-09-25 20:58:00,
2013-09-25 17:00:00,66.4,54.3,30.04,North,360,4.0,10.0,65,0.00,,---,0.00,VWS V14.00,2013-09-25 21:00:00,
2013-09-25 17:03:00,66.3,54.2,30.04,NE,36,11.0,11.0,65,0.00,,---,0.00,VWS V14.00,2013-09-25 21:03:00,
2013-09-25 17:08:00,65.6,54.0,30.04,NNE,25,1.0,11.0,66,0.00,,---,0.00,VWS V14.00,2013-09-25 21:08:00,
2013-09-25 17:13:00,65.8,53.7,30.04,North,360,1.0,11.0,65,0.00,,---,0.00,VWS V14.00,2013-09-25 21:13:00,
2013-09-25 17:18:00,65.9,53.8,30.04,NE,56,6.0,11.0,65,0.00,,---,0.00,VWS V14.00,2013-09-25 21:18:00,
2013-09-25 17:23:00,65.7,53.2,30.04,NNE,22,1.0,11.0,64,0.00,,---,0.00,VWS V14.00,2013-09-25 21:23:00,
2013-09-25 17:28:00,65.6,53.1,30.04,North,11,2.0,6.0,64,0.00,,---,0.00,VWS V14.00,2013-09-25 21:28:00,
2013-09-25 17:30:00,65.6,53.1,30.04,North,355,1.0,11.0,64,0.00,,---,0.00,VWS V14.00,2013-09-25 21:30:00,
2013-09-25 17:33:00,65.3,52.0,30.04,NE,36,8.0,12.0,62,0.00,,---,0.00,VWS V14.00,2013-09-25 21:33:00,
2013-09-25 17:38:00,64.6,52.2,30.04,North,11,6.0,12.0,64,0.00,,---,0.00,VWS V14.00,2013-09-25 21:38:00,
2013-09-25 17:43:00,64.3,51.9,30.04,NNW,347,4.0,12.0,64,0.00,,---,0.00,VWS V14.00,2013-09-25 21:43:00,
2013-09-25 17:48:00,64.3,52.7,30.04,North,355,3.0,12.0,66,0.00,,---,0.00,VWS V14.00,2013-09-25 21:48:00,
2013-09-25 17:53:00,64.2,52.2,30.04,NE,34,3.0,12.0,65,0.00,,---,0.00,VWS V14.00,2013-09-25 21:53:00,
2013-09-25 17:58:00,64.0,52.0,30.04,NE,49,3.0,5.0,65,0.00,,---,0.00,VWS V14.00,2013-09-25 21:58:00,
2013-09-25 18:00:00,64.0,52.0,30.04,NE,40,4.0,12.0,65,0.00,,---,0.00,VWS V14.00,2013-09-25 22:00:00,
2013-09-25 18:03:00,63.8,52.2,30.04,NE,46,2.0,7.0,66,0.00,,---,0.00,VWS V14.00,2013-09-25 22:03:00,
2013-09-25 18:08:00,63.5,52.4,30.04,NNE,15,6.0,7.0,67,0.00,,---,0.00,VWS V14.00,2013-09-25 22:08:00,
2013-09-25 18:13:00,63.2,52.5,30.04,East,82,0.0,7.0,68,0.00,,---,0.00,VWS V14.00,2013-09-25 22:13:00,
2013-09-25 18:18:00,62.9,53.4,30.04,NNE,22,0.0,7.0,71,0.00,,---,0.00,VWS V14.00,2013-09-25 22:18:00,
2013-09-25 18:23:00,62.6,53.1,30.04,East,101,0.0,7.0,71,0.00,,---,0.00,VWS V14.00,2013-09-25 22:23:00,
2013-09-25 18:28:00,62.3,53.2,30.04,ENE,61,1.0,3.0,72,0.00,,---,0.00,VWS V14.00,2013-09-25 22:28:00,
2013-09-25 18:30:00,62.4,53.3,30.04,ENE,61,1.0,7.0,72,0.00,,---,0.00,VWS V14.00,2013-09-25 22:30:00,
2013-09-25 18:33:00,62.0,53.3,30.04,NE,49,3.0,6.0,73,0.00,,---,0.00,VWS V14.00,2013-09-25 22:33:00,
2013-09-25 18:38:00,61.8,53.4,30.04,East,81,4.0,6.0,74,0.00,,---,0.00,VWS V14.00,2013-09-25 22:38:00,
2013-09-25 18:43:00,61.7,53.3,30.04,NE,44,0.0,6.0,74,0.00,,---,0.00,VWS V14.00,2013-09-25 22:43:00,
2013-09-25 18:48:00,61.9,53.5,30.04,ENE,71,2.0,6.0,74,0.00,,---,0.00,VWS V14.00,2013-09-25 22:48:00,
2013-09-25 18:53:00,61.9,53.5,30.04,ENE,71,0.0,6.0,74,0.00,,---,0.00,VWS V14.00,2013-09-25 22:53:00,
2013-09-25 18:58:00,61.8,53.4,30.04,ENE,71,0.0,3.0,74,0.00,,---,0.00,VWS V14.00,2013-09-25 22:58:00,
2013-09-25 19:00:00,61.8,53.4,30.04,ENE,71,3.0,6.0,74,0.00,,---,0.00,VWS V14.00,2013-09-25 23:00:00,
2013-09-25 19:03:00,61.6,53.6,30.04,NE,45,2.0,4.0,75,0.00,,---,0.00,VWS V14.00,2013-09-25 23:03:00,
2013-09-25 19:08:00,61.3,53.7,30.04,ENE,69,2.0,4.0,76,0.00,,---,0.00,VWS V14.00,2013-09-25 23:08:00,
2013-09-25 19:13:00,61.1,53.5,30.04,ENE,68,1.0,4.0,76,0.00,,---,0.00,VWS V14.00,2013-09-25 23:13:00,
2013-09-25 19:18:00,60.8,53.5,30.04,NNE,13,0.0,5.0,77,0.00,,---,0.00,VWS V14.00,2013-09-25 23:18:00,
2013-09-25 19:23:00,60.5,53.3,30.04,NNE,14,1.0,5.0,77,0.00,,---,0.00,VWS V14.00,2013-09-25 23:23:00,
2013-09-25 19:28:00,60.0,53.1,30.04,NNE,14,2.0,2.0,78,0.00,,---,0.00,VWS V14.00,2013-09-25 23:28:00,
2013-09-25 19:30:00,60.2,53.3,30.04,NNE,14,1.0,5.0,78,0.00,,---,0.00,VWS V14.00,2013-09-25 23:30:00,
2013-09-25 19:33:00,59.7,53.2,30.04,NNE,13,1.0,2.0,79,0.00,,---,0.00,VWS V14.00,2013-09-25 23:33:00,
2013-09-25 19:38:00,59.4,53.2,30.03,NNE,20,0.0,3.0,80,0.00,,---,0.00,VWS V14.00,2013-09-25 23:38:00,
2013-09-25 19:43:00,59.1,53.3,30.03,ENE,60,0.0,4.0,81,0.00,,---,0.00,VWS V14.00,2013-09-25 23:43:00,
2013-09-25 19:48:00,58.9,53.1,30.03,ENE,60,0.0,4.0,81,0.00,,---,0.00,VWS V14.00,2013-09-25 23:48:00,
2013-09-25 19:53:00,58.6,53.1,30.03,ENE,60,0.0,4.0,82,0.00,,---,0.00,VWS V14.00,2013-09-25 23:53:00,
2013-09-25 19:58:00,58.4,52.9,30.03,ENE,60,0.0,1.0,82,0.00,,---,0.00,VWS V14.00,2013-09-25 23:58:00,
2013-09-25 20:00:00,58.5,53.0,30.03,ENE,59,0.0,4.0,82,0.00,,---,0.00,VWS V14.00,2013-09-26 00:00:00,
2013-09-25 20:03:00,58.1,53.0,30.03,ENE,60,0.0,1.0,83,0.00,,---,0.00,VWS V14.00,2013-09-26 00:03:00,
2013-09-25 20:08:00,57.8,52.7,30.03,ENE,60,0.0,1.0,83,0.00,,---,0.00,VWS V14.00,2013-09-26 00:08:00,
2013-09-25 20:13:00,57.6,52.8,30.03,ENE,60,0.0,1.0,84,0.00,,---,0.00,VWS V14.00,2013-09-26 00:13:00,
2013-09-25 20:18:00,57.5,52.7,30.04,ENE,60,0.0,1.0,84,0.00,,---,0.00,VWS V14.00,2013-09-26 00:18:00,
2013-09-25 20:23:00,57.4,52.9,30.04,ENE,60,0.0,1.0,85,0.00,,---,0.00,VWS V14.00,2013-09-26 00:23:00,
2013-09-25 20:28:00,57.1,52.6,30.04,ENE,60,0.0,0.0,85,0.00,,---,0.00,VWS V14.00,2013-09-26 00:28:00,
2013-09-25 20:30:00,57.2,52.7,30.04,ENE,60,0.0,1.0,85,0.00,,---,0.00,VWS V14.00,2013-09-26 00:30:00,
2013-09-25 20:33:00,56.8,52.7,30.04,ENE,60,0.0,0.0,86,0.00,,---,0.00,VWS V14.00,2013-09-26 00:33:00,
2013-09-25 20:39:00,56.5,52.4,30.04,ENE,59,0.0,0.0,86,0.00,,---,0.00,VWS V14.00,2013-09-26 00:39:00,
2013-09-25 20:44:00,56.0,51.9,30.04,ENE,60,0.0,1.0,86,0.00,,---,0.00,VWS V14.00,2013-09-26 00:44:00,
2013-09-25 20:49:00,55.7,51.9,30.04,ENE,60,0.0,1.0,87,0.00,,---,0.00,VWS V14.00,2013-09-26 00:49:00,
2013-09-25 20:54:00,55.4,51.6,30.04,ENE,60,0.0,1.0,87,0.00,,---,0.00,VWS V14.00,2013-09-26 00:54:00,
2013-09-25 20:59:00,54.9,51.1,30.04,ENE,59,0.0,0.0,87,0.00,,---,0.00,VWS V14.00,2013-09-26 00:59:00,
2013-09-25 21:00:00,55.1,51.3,30.04,ENE,60,0.0,1.0,87,0.00,,---,0.00,VWS V14.00,2013-09-26 01:00:00,
2013-09-25 21:04:00,54.5,50.7,30.04,ENE,60,0.0,0.0,87,0.00,,---,0.00,VWS V14.00,2013-09-26 01:04:00,
2013-09-25 21:09:00,54.2,50.7,30.04,ENE,60,0.0,1.0,88,0.00,,---,0.00,VWS V14.00,2013-09-26 01:09:00,
2013-09-25 21:14:00,54.1,50.9,30.04,ENE,60,0.0,1.0,89,0.00,,---,0.00,VWS V14.00,2013-09-26 01:14:00,
2013-09-25 21:19:00,54.0,51.1,30.04,ENE,60,0.0,1.0,90,0.00,,---,0.00,VWS V14.00,2013-09-26 01:19:00,
2013-09-25 21:24:00,54.0,51.4,30.04,ENE,60,0.0,1.0,91,0.00,,---,0.00,VWS V14.00,2013-09-26 01:24:00,
2013-09-25 21:29:00,54.0,51.4,30.05,ENE,60,0.0,1.0,91,0.00,,---,0.00,VWS V14.00,2013-09-26 01:29:00,
2013-09-25 21:30:00,54.0,51.4,30.05,ENE,60,0.0,1.0,91,0.00,,---,0.00,VWS V14.00,2013-09-26 01:30:00,
2013-09-25 21:34:00,53.9,51.3,30.05,ENE,60,0.0,1.0,91,0.00,,---,0.00,VWS V14.00,2013-09-26 01:34:00,
2013-09-25 21:39:00,53.9,51.3,30.05,ENE,60,0.0,1.0,91,0.00,,---,0.00,VWS V14.00,2013-09-26 01:39:00,
2013-09-25 21:44:00,53.8,51.2,30.05,ENE,60,0.0,1.0,91,0.00,,---,0.00,VWS V14.00,2013-09-26 01:44:00,
2013-09-25 21:49:00,53.4,50.5,30.05,ENE,60,0.0,1.0,90,0.00,,---,0.00,VWS V14.00,2013-09-26 01:49:00,
2013-09-25 21:54:00,52.9,49.8,30.05,ENE,60,0.0,1.0,89,0.00,,---,0.00,VWS V14.00,2013-09-26 01:54:00,
2013-09-25 21:59:00,52.6,49.8,30.05,ENE,60,0.0,0.0,90,0.00,,---,0.00,VWS V14.00,2013-09-26 01:59:00,
2013-09-25 22:00:00,52.7,49.8,30.05,ENE,60,0.0,1.0,90,0.00,,---,0.00,VWS V14.00,2013-09-26 02:00:00,
2013-09-25 22:04:00,52.6,50.0,30.05,ENE,60,0.0,0.0,91,0.00,,---,0.00,VWS V14.00,2013-09-26 02:04:00,
2013-09-25 22:09:00,52.6,50.3,30.06,ENE,60,0.0,0.0,92,0.00,,---,0.00,VWS V14.00,2013-09-26 02:09:00,
2013-09-25 22:14:00,52.6,50.3,30.06,ENE,59,0.0,0.0,92,0.00,,---,0.00,VWS V14.00,2013-09-26 02:14:00,
2013-09-25 22:19:00,52.7,50.5,30.06,ENE,60,0.0,0.0,92,0.00,,---,0.00,VWS V14.00,2013-09-26 02:19:00,
2013-09-25 22:24:00,52.8,50.5,30.06,ENE,60,0.0,0.0,92,0.00,,---,0.00,VWS V14.00,2013-09-26 02:24:00,
2013-09-25 22:29:00,52.7,50.7,30.06,ENE,60,0.0,0.0,93,0.00,,---,0.00,VWS V14.00,2013-09-26 02:29:00,
2013-09-25 22:30:00,52.7,50.5,30.06,ENE,60,0.0,0.0,92,0.00,,---,0.00,VWS V14.00,2013-09-26 02:30:00,
2013-09-25 22:34:00,52.8,50.8,30.06,ENE,60,0.0,0.0,93,0.00,,---,0.00,VWS V14.00,2013-09-26 02:34:00,
2013-09-25 22:39:00,52.8,50.8,30.06,ENE,60,0.0,1.0,93,0.00,,---,0.00,VWS V14.00,2013-09-26 02:39:00,
2013-09-25 22:44:00,52.8,50.5,30.06,ENE,60,0.0,1.0,92,0.00,,---,0.00,VWS V14.00,2013-09-26 02:44:00,
2013-09-25 22:49:00,52.8,50.8,30.06,ENE,60,0.0,1.0,93,0.00,,---,0.00,VWS V14.00,2013-09-26 02:49:00,
2013-09-25 22:54:00,52.9,50.9,30.06,ENE,60,2.0,2.0,93,0.00,,---,0.00,VWS V14.00,2013-09-26 02:54:00,
2013-09-25 22:59:00,53.2,51.2,30.06,ENE,60,0.0,2.0,93,0.00,,---,0.00,VWS V14.00,2013-09-26 02:59:00,
2013-09-25 23:00:00,53.0,51.0,30.06,ENE,60,0.0,2.0,93,0.00,,---,0.00,VWS V14.00,2013-09-26 03:00:00,
2013-09-25 23:04:00,53.4,51.4,30.06,ENE,60,0.0,2.0,93,0.00,,---,0.00,VWS V14.00,2013-09-26 03:04:00,
2013-09-25 23:09:00,53.5,51.2,30.06,ENE,60,1.0,2.0,92,0.00,,---,0.00,VWS V14.00,2013-09-26 03:09:00,
2013-09-25 23:14:00,53.6,51.3,30.06,ENE,60,0.0,2.0,92,0.00,,---,0.00,VWS V14.00,2013-09-26 03:14:00,
2013-09-25 23:19:00,53.4,51.1,30.06,ENE,60,0.0,2.0,92,0.00,,---,0.00,VWS V14.00,2013-09-26 03:19:00,
2013-09-25 23:24:00,53.2,50.7,30.06,ENE,60,0.0,2.0,91,0.00,,---,0.00,VWS V14.00,2013-09-26 03:24:00,
2013-09-25 23:29:00,53.1,50.8,30.06,ENE,60,0.0,1.0,92,0.00,,---,0.00,VWS V14.00,2013-09-26 03:29:00,
2013-09-25 23:30:00,53.1,50.8,30.06,ENE,60,0.0,2.0,92,0.00,,---,0.00,VWS V14.00,2013-09-26 03:30:00,
2013-09-25 23:34:00,53.0,50.7,30.06,ENE,60,0.0,1.0,92,0.00,,---,0.00,VWS V14.00,2013-09-26 03:34:00,
2013-09-25 23:39:00,52.8,50.5,30.06,ENE,60,0.0,1.0,92,0.00,,---,0.00,VWS V14.00,2013-09-26 03:39:00,
2013-09-25 23:44:00,52.9,50.6,30.06,ENE,60,0.0,2.0,92,0.00,,---,0.00,VWS V14.00,2013-09-26 03:44:00,
2013-09-25 23:49:00,53.1,50.8,30.06,ENE,60,0.0,3.0,92,0.00,,---,0.00,VWS V14.00,2013-09-26 03:49:00,
2013-09-25 23:54:00,53.2,51.2,30.06,ENE,60,0.0,3.0,93,0.00,,---,0.00,VWS V14.00,2013-09-26 03:54:00,
2013-09-25 23:59:00,53.2,50.9,30.06,ENE,60,0.0,0.0,92,0.00,,---,0.00,VWS V14.00,2013-09-26 03:59:00,